logo
Search for airport 
image banner adimage banner adimage banner ad
image banner ad

FACO - Alkantpan Test Range

Located in Prieska, South Africa

ICAO - FACO, IATA -

Data provided by Airmate  

General information

Coordinates: S29°55'60" E22°15'57"
Elevation is 3530 feet MSL.
Magnetic variation is -23° East
View others Airports in Northern Cape

Operational data

Special qualification required
Current time UTC:
Current local time:
Weather at : - ( 0 km )
METAR: LWSK 180950Z VRB02KT 9999 SCT040 13/04 Q1008 NOSIG
View NOTAMs / SUP AIP / TFR affecting this airport [VIEW]
Communications frequencies: [VIEW]

Runways:

RWY identifierQFULength (ft)Width (ft)SurfaceLDA (ft)
14116°492079GRAV4921
32296°492079GRAV4921

Airport contact information

Address: Prieska South Africa

Satellite view of FACO